This is the latest recevied weather packets stored in our database for station/object SP8PUB-10. If no packets are shown the sender has not sent any weather packets the latest 10 day(s).
| Time | Temp. | Humidity | Pressure | Rain* | Wind** | Luminosity | Snow |
|---|---|---|---|---|---|---|---|
| 1777763583 | 9.44° C | 70% | 1021.6 hPa | - | - | - | - |
| 1777762683 | 10° C | 69% | 1021.6 hPa | - | - | - | - |
| 1777761322 | 10.56° C | 68% | 1021.8 hPa | - | - | - | - |
| 1777759527 | 10.56° C | 66% | 1022.1 hPa | - | - | - | - |
| 1777758626 | 10.56° C | 66% | 1022.1 hPa | - | - | - | - |
| 1777757726 | 10.56° C | 67% | 1022.2 hPa | - | - | - | - |
| 1777756826 | 11.11° C | 67% | 1022.3 hPa | - | - | - | - |
| 1777755926 | 11.11° C | 67% | 1022.3 hPa | - | - | - | - |
| 1777755026 | 11.67° C | 65% | 1022.4 hPa | - | - | - | - |
| 1777754126 | 12.22° C | 64% | 1022.4 hPa | - | - | - | - |
| 1777753226 | 12.22° C | 62% | 1022.4 hPa | - | - | - | - |
| 1777752326 | 12.78° C | 62% | 1022.4 hPa | - | - | - | - |
| 1777751426 | 13.33° C | 61% | 1022.3 hPa | - | - | - | - |
| 1777750525 | 12.78° C | 65% | 1022.4 hPa | - | - | - | - |
| 1777749625 | 12.78° C | 66% | 1022.5 hPa | - | - | - | - |
| 1777748725 | 13.33° C | 63% | 1022.4 hPa | - | - | - | - |
| 1777747825 | 13.89° C | 61% | 1022.4 hPa | - | - | - | - |
| 1777746925 | 13.89° C | 59% | 1022.3 hPa | - | - | - | - |
| 1777746025 | 14.44° C | 58% | 1022.2 hPa | - | - | - | - |
| 1777745125 | 15.56° C | 56% | 1022.1 hPa | - | - | - | - |
| 1777744225 | 16.11° C | 54% | 1022 hPa | - | - | - | - |
| 1777743325 | 17.22° C | 52% | 1022 hPa | - | - | - | - |
| 1777742425 | 17.78° C | 49% | 1022.1 hPa | - | - | - | - |
| 1777741525 | 18.33° C | 48% | 1022 hPa | - | - | - | - |
| 1777740624 | 18.89° C | 47% | 1022.1 hPa | - | - | - | - |
* Rain since midnight (hover to see other rain measurements)
** Current wind speed in m/s (hover to see current wind gust speed)